Florida, Uruguay

4:18 AM UYST on January 29, 2015 (GMT -0200)
Carrasco International-Gen C L Berisso | Change Station
CLOSE
Current Station
Airport
Location: Montevideo,
Elevation: 105 ft
Nearby Weather Stations

Elev 105 ft 34.83 °S, 56.01 °W | Updated 18 minutes ago

Partly Cloudy
Partly Cloudy
66 °F
Feels Like 66 °F
N
17
Wind Variable Wind from South

Today
High -- | Low -- °F
--% Chance of Precip.
Yesterday
High -- | Low -- °F
Precip. -- in
7:02 AM 8:52 PM
Waxing Gibbous, 71% visible
Pressure 29.92 in
Visibility 6.2 miles
Clouds Few 3000 ft
Dew Point 55 °F
Humidity 68%
Rainfall 0.00 in
Snow Depth Not available.
UV 0 out of 12
Pollen Not available.
Air Quality Not available.
Flu Activity Not available.
METAR SUMU 290600Z 17015KT 9999 FEW030 19/13 Q1013 NOSIG

More Conditions Fewer Conditions

Pressure 29.92 in
Visibility 6.2 miles
Clouds Few 3000 ft
Dew Point 55 °F
Humidity 68%
Rainfall 0.00 in
Snow Depth Not available.
UV 0 out of 12
Pollen Not available.
Air Quality Not available.
Flu Activity Not available.
METAR SUMU 290600Z 17015KT 9999 FEW030 19/13 Q1013 NOSIG

More Conditions Fewer Conditions

10-Day Weather Forecast

Almanac

Astronomy

Jan. 29, 2015 Rise Set
Actual Time
Civil Twilight
Nautical Twilight
Astronomical Twilight
Moon
Length of Visible Light
Length of Day
Tomorrow will be .
, % of the Moon is Illuminated

Today's Extremes

Country Highs Country Lows

Community

WunderPhotos

Upload Photos

1,791,369 photos uploaded!

WunderBlogs® & News

Nearby

Air Quality

  Air Quality AQ Index Pollutant
Not available.

Snow Depth

Station Depth Elevation

Earthquake Activity

City Distance Mag. Time & Date
Minimum magnitude displayed is 2.5.

Coastal Water Temperatures

Place Temperature

Nearby Weather Stations